sensor_id;sensor_type;location;lat;lon;timestamp;P1;P2;P0
65383;PMS5003;51986;52.788;41.368;2023-02-28T00:00:36;2.75;2.75;0.00
65383;PMS5003;51986;52.788;41.368;2023-02-28T00:03:04;2.00;1.00;0.00
65383;PMS5003;51986;52.788;41.368;2023-02-28T00:05:31;2.75;1.25;0.00
65383;PMS5003;51986;52.788;41.368;2023-02-28T00:07:58;3.00;3.00;0.50
65383;PMS5003;51986;52.788;41.368;2023-02-28T00:10:27;3.00;3.00;1.00
65383;PMS5003;51986;52.788;41.368;2023-02-28T00:12:56;5.00;3.75;1.00
65383;PMS5003;51986;52.788;41.368;2023-02-28T00:15:27;4.00;3.00;1.00
65383;PMS5003;51986;52.788;41.368;2023-02-28T00:17:54;4.25;3.25;2.50
65383;PMS5003;51986;52.788;41.368;2023-02-28T00:20:21;3.25;2.00;1.00
65383;PMS5003;51986;52.788;41.368;2023-02-28T00:22:49;2.00;1.00;0.00
65383;PMS5003;51986;52.788;41.368;2023-02-28T00:25:19;3.00;3.00;0.00
65383;PMS5003;51986;52.788;41.368;2023-02-28T00:27:48;3.00;3.00;0.00
65383;PMS5003;51986;52.788;41.368;2023-02-28T00:30:17;3.00;2.75;0.00
65383;PMS5003;51986;52.788;41.368;2023-02-28T00:32:45;4.50;3.75;1.00
65383;PMS5003;51986;52.788;41.368;2023-02-28T00:35:13;3.75;3.00;2.00
65383;PMS5003;51986;52.788;41.368;2023-02-28T00:37:40;1.00;1.00;1.00
65383;PMS5003;51986;52.788;41.368;2023-02-28T00:40:07;1.00;0.75;0.00
65383;PMS5003;51986;52.788;41.368;2023-02-28T00:42:35;1.00;1.00;0.00
65383;PMS5003;51986;52.788;41.368;2023-02-28T00:45:03;3.00;1.00;0.00
65383;PMS5003;51986;52.788;41.368;2023-02-28T00:47:31;1.00;1.00;0.00
65383;PMS5003;51986;52.788;41.368;2023-02-28T00:49:59;1.00;1.00;0.00
65383;PMS5003;51986;52.788;41.368;2023-02-28T00:52:27;2.75;2.75;0.25
65383;PMS5003;51986;52.788;41.368;2023-02-28T00:54:54;1.50;1.50;0.00
65383;PMS5003;51986;52.788;41.368;2023-02-28T00:57:21;5.00;4.50;1.00
65383;PMS5003;51986;52.788;41.368;2023-02-28T00:59:48;3.00;2.00;1.00
65383;PMS5003;51986;52.788;41.368;2023-02-28T01:02:15;2.00;2.00;0.00
65383;PMS5003;51986;52.788;41.368;2023-02-28T01:04:42;2.00;1.00;0.00
65383;PMS5003;51986;52.788;41.368;2023-02-28T01:07:09;2.25;1.25;0.00
65383;PMS5003;51986;52.788;41.368;2023-02-28T01:09:36;3.00;1.00;0.00
65383;PMS5003;51986;52.788;41.368;2023-02-28T01:12:03;2.00;1.00;0.00
65383;PMS5003;51986;52.788;41.368;2023-02-28T01:14:32;3.00;1.00;0.00
65383;PMS5003;51986;52.788;41.368;2023-02-28T01:16:58;2.00;1.00;0.00
65383;PMS5003;51986;52.788;41.368;2023-02-28T01:19:25;3.00;2.50;0.00
65383;PMS5003;51986;52.788;41.368;2023-02-28T01:21:52;1.25;1.00;0.00
65383;PMS5003;51986;52.788;41.368;2023-02-28T01:24:19;1.00;1.00;0.00
65383;PMS5003;51986;52.788;41.368;2023-02-28T01:26:46;3.00;1.00;0.00
65383;PMS5003;51986;52.788;41.368;2023-02-28T01:29:14;3.00;2.25;1.00
65383;PMS5003;51986;52.788;41.368;2023-02-28T01:31:41;3.00;2.50;0.00
65383;PMS5003;51986;52.788;41.368;2023-02-28T01:34:08;3.00;3.00;0.00
65383;PMS5003;51986;52.788;41.368;2023-02-28T01:36:35;4.00;3.00;0.00
65383;PMS5003;51986;52.788;41.368;2023-02-28T01:39:02;4.00;3.00;0.00
65383;PMS5003;51986;52.788;41.368;2023-02-28T01:41:30;3.00;1.75;0.00
65383;PMS5003;51986;52.788;41.368;2023-02-28T01:44:07;2.75;2.25;0.00
65383;PMS5003;51986;52.788;41.368;2023-02-28T01:47:11;2.25;2.25;0.00
65383;PMS5003;51986;52.788;41.368;2023-02-28T01:49:38;3.00;3.00;0.00
65383;PMS5003;51986;52.788;41.368;2023-02-28T01:52:06;4.00;3.00;1.00
65383;PMS5003;51986;52.788;41.368;2023-02-28T01:54:34;2.00;2.00;1.00
65383;PMS5003;51986;52.788;41.368;2023-02-28T01:57:10;3.00;3.00;1.00
65383;PMS5003;51986;52.788;41.368;2023-02-28T01:59:42;3.00;3.00;0.25
65383;PMS5003;51986;52.788;41.368;2023-02-28T02:02:15;3.00;3.00;1.00
65383;PMS5003;51986;52.788;41.368;2023-02-28T02:05:03;4.00;3.00;1.00
65383;PMS5003;51986;52.788;41.368;2023-02-28T02:07:36;3.00;2.50;0.00
65383;PMS5003;51986;52.788;41.368;2023-02-28T02:10:18;3.00;3.00;0.00
65383;PMS5003;51986;52.788;41.368;2023-02-28T02:13:25;3.00;3.00;1.00
65383;PMS5003;51986;52.788;41.368;2023-02-28T02:16:04;3.00;1.00;0.00
65383;PMS5003;51986;52.788;41.368;2023-02-28T02:27:16;2.00;1.00;0.00
65383;PMS5003;51986;52.788;41.368;2023-02-28T02:33:10;2.00;2.00;0.00
65383;PMS5003;51986;52.788;41.368;2023-02-28T02:35:54;2.50;1.75;0.00
65383;PMS5003;51986;52.788;41.368;2023-02-28T02:44:30;0.00;0.00;0.00
65383;PMS5003;51986;52.788;41.368;2023-02-28T02:46:48;1.00;1.00;0.00
65383;PMS5003;51986;52.788;41.368;2023-02-28T02:49:21;3.00;2.00;0.00
65383;PMS5003;51986;52.788;41.368;2023-02-28T02:51:54;3.00;1.75;0.00
65383;PMS5003;51986;52.788;41.368;2023-02-28T02:54:29;3.00;3.00;0.00
65383;PMS5003;51986;52.788;41.368;2023-02-28T02:57:04;1.00;1.00;0.00
65383;PMS5003;51986;52.788;41.368;2023-02-28T02:59:35;1.00;0.00;0.00
65383;PMS5003;51986;52.788;41.368;2023-02-28T03:02:06;2.50;1.00;0.00
65383;PMS5003;51986;52.788;41.368;2023-02-28T03:04:40;1.00;1.00;0.00
65383;PMS5003;51986;52.788;41.368;2023-02-28T03:07:10;1.00;1.00;0.00
65383;PMS5003;51986;52.788;41.368;2023-02-28T03:09:38;5.00;5.00;0.25
65383;PMS5003;51986;52.788;41.368;2023-02-28T03:12:06;4.00;4.00;1.00
65383;PMS5003;51986;52.788;41.368;2023-02-28T03:23:16;7.00;6.75;3.00
65383;PMS5003;51986;52.788;41.368;2023-02-28T03:31:27;1.00;1.00;0.00
65383;PMS5003;51986;52.788;41.368;2023-02-28T03:34:08;3.00;3.00;1.00
65383;PMS5003;51986;52.788;41.368;2023-02-28T03:36:44;3.00;2.25;1.25
65383;PMS5003;51986;52.788;41.368;2023-02-28T03:39:42;4.00;3.00;1.00
65383;PMS5003;51986;52.788;41.368;2023-02-28T03:44:41;3.00;3.00;1.00
65383;PMS5003;51986;52.788;41.368;2023-02-28T03:47:23;4.00;3.00;1.00
65383;PMS5003;51986;52.788;41.368;2023-02-28T03:49:59;2.00;1.75;0.00
65383;PMS5003;51986;52.788;41.368;2023-02-28T03:52:33;3.00;2.50;0.00
65383;PMS5003;51986;52.788;41.368;2023-02-28T03:55:10;1.00;1.00;0.00
65383;PMS5003;51986;52.788;41.368;2023-02-28T04:00:19;1.75;1.00;0.00
65383;PMS5003;51986;52.788;41.368;2023-02-28T04:02:54;2.50;1.50;0.00
65383;PMS5003;51986;52.788;41.368;2023-02-28T04:05:21;3.25;3.00;0.00
65383;PMS5003;51986;52.788;41.368;2023-02-28T04:07:49;3.00;3.00;1.00
65383;PMS5003;51986;52.788;41.368;2023-02-28T04:10:16;1.75;1.50;0.00
65383;PMS5003;51986;52.788;41.368;2023-02-28T04:12:44;2.00;1.75;0.00
65383;PMS5003;51986;52.788;41.368;2023-02-28T04:15:11;4.00;3.00;1.00
65383;PMS5003;51986;52.788;41.368;2023-02-28T04:17:38;3.00;2.00;0.75
65383;PMS5003;51986;52.788;41.368;2023-02-28T04:20:05;3.00;3.00;0.00
65383;PMS5003;51986;52.788;41.368;2023-02-28T04:22:32;3.00;1.00;0.00
65383;PMS5003;51986;52.788;41.368;2023-02-28T04:24:59;3.00;3.00;0.00
65383;PMS5003;51986;52.788;41.368;2023-02-28T04:27:26;4.00;3.00;0.00
65383;PMS5003;51986;52.788;41.368;2023-02-28T04:29:53;3.00;3.00;0.00
65383;PMS5003;51986;52.788;41.368;2023-02-28T04:32:20;3.00;2.00;0.00
65383;PMS5003;51986;52.788;41.368;2023-02-28T04:34:47;1.00;1.00;0.00
65383;PMS5003;51986;52.788;41.368;2023-02-28T04:37:14;3.00;2.25;0.00
65383;PMS5003;51986;52.788;41.368;2023-02-28T04:39:41;2.25;1.75;0.00
65383;PMS5003;51986;52.788;41.368;2023-02-28T04:42:10;2.00;2.00;0.00
65383;PMS5003;51986;52.788;41.368;2023-02-28T04:44:37;3.00;1.00;0.00
65383;PMS5003;51986;52.788;41.368;2023-02-28T04:47:04;0.75;0.75;0.00
65383;PMS5003;51986;52.788;41.368;2023-02-28T04:49:31;0.00;0.00;0.00
65383;PMS5003;51986;52.788;41.368;2023-02-28T04:51:58;1.25;0.25;0.00
65383;PMS5003;51986;52.788;41.368;2023-02-28T04:54:25;1.00;1.00;0.00
65383;PMS5003;51986;52.788;41.368;2023-02-28T04:56:52;4.00;3.00;0.00
65383;PMS5003;51986;52.788;41.368;2023-02-28T04:59:19;3.00;3.00;1.00
65383;PMS5003;51986;52.788;41.368;2023-02-28T05:01:46;3.00;3.00;1.00
65383;PMS5003;51986;52.788;41.368;2023-02-28T05:04:15;3.00;3.00;0.00
65383;PMS5003;51986;52.788;41.368;2023-02-28T05:06:42;3.00;2.00;1.00
65383;PMS5003;51986;52.788;41.368;2023-02-28T05:09:09;3.00;2.00;0.00
65383;PMS5003;51986;52.788;41.368;2023-02-28T05:11:36;1.00;1.00;0.00
65383;PMS5003;51986;52.788;41.368;2023-02-28T05:14:04;1.75;0.25;0.00
65383;PMS5003;51986;52.788;41.368;2023-02-28T05:16:33;3.00;3.00;1.00
65383;PMS5003;51986;52.788;41.368;2023-02-28T05:19:00;2.25;1.00;0.00
65383;PMS5003;51986;52.788;41.368;2023-02-28T05:21:29;1.00;1.00;0.00
65383;PMS5003;51986;52.788;41.368;2023-02-28T05:24:00;2.50;1.00;0.00
65383;PMS5003;51986;52.788;41.368;2023-02-28T05:26:29;1.00;1.00;0.00
65383;PMS5003;51986;52.788;41.368;2023-02-28T05:28:57;1.00;1.00;0.00
65383;PMS5003;51986;52.788;41.368;2023-02-28T05:31:23;2.00;2.00;0.00
65383;PMS5003;51986;52.788;41.368;2023-02-28T05:33:51;1.00;1.00;0.00
65383;PMS5003;51986;52.788;41.368;2023-02-28T05:36:18;1.00;0.75;0.00
65383;PMS5003;51986;52.788;41.368;2023-02-28T05:38:49;1.00;0.25;0.00
65383;PMS5003;51986;52.788;41.368;2023-02-28T05:41:18;1.00;1.00;1.00
65383;PMS5003;51986;52.788;41.368;2023-02-28T05:43:46;1.00;1.00;0.00
65383;PMS5003;51986;52.788;41.368;2023-02-28T05:46:14;1.00;0.25;0.00
65383;PMS5003;51986;52.788;41.368;2023-02-28T05:48:41;1.75;1.75;0.00
65383;PMS5003;51986;52.788;41.368;2023-02-28T05:51:12;1.00;1.00;0.00
65383;PMS5003;51986;52.788;41.368;2023-02-28T05:53:39;1.75;1.00;0.00
65383;PMS5003;51986;52.788;41.368;2023-02-28T05:56:06;1.50;1.00;0.00
65383;PMS5003;51986;52.788;41.368;2023-02-28T05:58:33;2.00;2.00;0.00
65383;PMS5003;51986;52.788;41.368;2023-02-28T06:01:00;1.00;1.00;0.00
65383;PMS5003;51986;52.788;41.368;2023-02-28T06:03:45;0.00;0.00;0.00
65383;PMS5003;51986;52.788;41.368;2023-02-28T06:06:12;3.00;2.75;0.00
65383;PMS5003;51986;52.788;41.368;2023-02-28T06:08:40;2.75;2.00;0.00
65383;PMS5003;51986;52.788;41.368;2023-02-28T06:11:07;1.00;1.00;0.00
65383;PMS5003;51986;52.788;41.368;2023-02-28T06:13:34;3.00;1.00;0.00
65383;PMS5003;51986;52.788;41.368;2023-02-28T06:16:01;1.00;1.00;0.00
65383;PMS5003;51986;52.788;41.368;2023-02-28T06:18:28;3.25;3.00;0.00
65383;PMS5003;51986;52.788;41.368;2023-02-28T06:20:55;2.00;1.00;0.00
65383;PMS5003;51986;52.788;41.368;2023-02-28T06:23:22;2.00;1.00;0.00
65383;PMS5003;51986;52.788;41.368;2023-02-28T06:25:49;2.00;2.00;0.00
65383;PMS5003;51986;52.788;41.368;2023-02-28T06:28:16;2.00;1.50;0.00
65383;PMS5003;51986;52.788;41.368;2023-02-28T06:30:43;2.00;2.00;0.00
65383;PMS5003;51986;52.788;41.368;2023-02-28T06:33:12;3.00;3.00;0.00
65383;PMS5003;51986;52.788;41.368;2023-02-28T06:35:38;3.00;2.00;0.00
65383;PMS5003;51986;52.788;41.368;2023-02-28T06:38:06;3.00;3.00;0.00
65383;PMS5003;51986;52.788;41.368;2023-02-28T06:40:32;1.00;1.00;0.00
65383;PMS5003;51986;52.788;41.368;2023-02-28T06:43:00;2.00;1.00;0.00
65383;PMS5003;51986;52.788;41.368;2023-02-28T06:45:26;5.00;4.00;0.00
65383;PMS5003;51986;52.788;41.368;2023-02-28T06:47:54;4.75;3.00;1.00
65383;PMS5003;51986;52.788;41.368;2023-02-28T06:50:21;3.00;2.00;1.00
65383;PMS5003;51986;52.788;41.368;2023-02-28T06:52:48;1.00;1.00;0.00
65383;PMS5003;51986;52.788;41.368;2023-02-28T06:55:15;4.75;3.75;1.50
65383;PMS5003;51986;52.788;41.368;2023-02-28T06:57:42;2.75;2.75;1.00
65383;PMS5003;51986;52.788;41.368;2023-02-28T07:00:09;3.00;1.50;1.00
65383;PMS5003;51986;52.788;41.368;2023-02-28T07:02:37;4.00;3.25;1.00
65383;PMS5003;51986;52.788;41.368;2023-02-28T07:05:05;3.00;1.25;0.00
65383;PMS5003;51986;52.788;41.368;2023-02-28T07:07:32;6.75;5.00;2.00
65383;PMS5003;51986;52.788;41.368;2023-02-28T07:09:59;3.50;2.50;1.00
65383;PMS5003;51986;52.788;41.368;2023-02-28T07:12:27;5.75;5.00;2.25
65383;PMS5003;51986;52.788;41.368;2023-02-28T07:14:53;5.00;4.00;1.00
65383;PMS5003;51986;52.788;41.368;2023-02-28T07:17:21;3.50;3.00;0.00
65383;PMS5003;51986;52.788;41.368;2023-02-28T07:19:47;5.00;5.00;1.00
65383;PMS5003;51986;52.788;41.368;2023-02-28T07:22:14;3.00;3.00;1.00
65383;PMS5003;51986;52.788;41.368;2023-02-28T07:24:41;4.00;3.50;0.00
65383;PMS5003;51986;52.788;41.368;2023-02-28T07:27:09;3.00;3.00;1.00
65383;PMS5003;51986;52.788;41.368;2023-02-28T07:29:36;5.00;5.00;0.75
65383;PMS5003;51986;52.788;41.368;2023-02-28T07:32:03;5.00;5.00;1.00
65383;PMS5003;51986;52.788;41.368;2023-02-28T07:34:31;3.00;3.00;1.00
65383;PMS5003;51986;52.788;41.368;2023-02-28T07:36:58;5.75;5.00;1.00
65383;PMS5003;51986;52.788;41.368;2023-02-28T07:39:25;7.00;5.00;3.00
65383;PMS5003;51986;52.788;41.368;2023-02-28T07:41:52;4.50;3.00;2.00
65383;PMS5003;51986;52.788;41.368;2023-02-28T07:44:25;4.75;3.00;2.00
65383;PMS5003;51986;52.788;41.368;2023-02-28T07:46:53;7.00;5.00;2.00
65383;PMS5003;51986;52.788;41.368;2023-02-28T07:49:20;6.00;6.00;3.75
65383;PMS5003;51986;52.788;41.368;2023-02-28T07:51:47;5.00;4.00;1.00
65383;PMS5003;51986;52.788;41.368;2023-02-28T07:54:16;4.75;3.00;1.00
65383;PMS5003;51986;52.788;41.368;2023-02-28T07:56:43;4.75;4.75;1.00
65383;PMS5003;51986;52.788;41.368;2023-02-28T07:59:10;4.25;4.25;1.00
65383;PMS5003;51986;52.788;41.368;2023-02-28T08:01:40;3.00;3.00;1.00
65383;PMS5003;51986;52.788;41.368;2023-02-28T08:04:07;1.00;1.00;0.00
65383;PMS5003;51986;52.788;41.368;2023-02-28T08:06:36;3.25;3.00;1.00
65383;PMS5003;51986;52.788;41.368;2023-02-28T08:09:03;3.00;3.00;1.00
65383;PMS5003;51986;52.788;41.368;2023-02-28T08:11:30;3.25;3.00;0.00
65383;PMS5003;51986;52.788;41.368;2023-02-28T08:13:57;7.00;4.00;1.75
65383;PMS5003;51986;52.788;41.368;2023-02-28T08:16:27;5.25;3.00;1.00
65383;PMS5003;51986;52.788;41.368;2023-02-28T08:18:54;6.00;5.00;1.00
65383;PMS5003;51986;52.788;41.368;2023-02-28T08:21:44;6.00;3.00;1.00
65383;PMS5003;51986;52.788;41.368;2023-02-28T08:24:11;4.75;3.75;1.00
65383;PMS5003;51986;52.788;41.368;2023-02-28T08:26:38;4.00;3.00;1.50
65383;PMS5003;51986;52.788;41.368;2023-02-28T08:29:05;3.00;2.00;1.00
65383;PMS5003;51986;52.788;41.368;2023-02-28T08:31:32;2.25;1.00;0.00
65383;PMS5003;51986;52.788;41.368;2023-02-28T08:33:59;3.00;3.00;0.75
65383;PMS5003;51986;52.788;41.368;2023-02-28T08:36:26;3.00;3.00;0.00
65383;PMS5003;51986;52.788;41.368;2023-02-28T08:38:54;5.00;5.00;2.00
65383;PMS5003;51986;52.788;41.368;2023-02-28T08:41:20;6.00;4.75;2.50
65383;PMS5003;51986;52.788;41.368;2023-02-28T08:43:48;5.00;4.00;1.00
65383;PMS5003;51986;52.788;41.368;2023-02-28T08:46:14;8.75;7.00;3.00
65383;PMS5003;51986;52.788;41.368;2023-02-28T08:48:42;12.25;11.00;6.25
65383;PMS5003;51986;52.788;41.368;2023-02-28T08:51:10;10.00;8.00;5.00
65383;PMS5003;51986;52.788;41.368;2023-02-28T08:53:40;6.75;5.00;2.00
65383;PMS5003;51986;52.788;41.368;2023-02-28T08:56:08;6.25;5.75;3.75
65383;PMS5003;51986;52.788;41.368;2023-02-28T08:58:37;4.50;3.25;1.25
65383;PMS5003;51986;52.788;41.368;2023-02-28T09:01:09;3.00;3.00;0.00
65383;PMS5003;51986;52.788;41.368;2023-02-28T09:03:39;3.00;3.00;0.00
65383;PMS5003;51986;52.788;41.368;2023-02-28T09:06:08;3.00;2.75;0.00
65383;PMS5003;51986;52.788;41.368;2023-02-28T09:08:36;3.00;3.00;1.00
65383;PMS5003;51986;52.788;41.368;2023-02-28T09:11:04;2.00;2.00;1.00
65383;PMS5003;51986;52.788;41.368;2023-02-28T09:13:32;4.50;4.50;1.00
65383;PMS5003;51986;52.788;41.368;2023-02-28T09:16:01;4.50;3.00;1.00
65383;PMS5003;51986;52.788;41.368;2023-02-28T09:18:29;3.00;2.00;0.00
65383;PMS5003;51986;52.788;41.368;2023-02-28T09:20:57;5.50;4.50;1.75
65383;PMS5003;51986;52.788;41.368;2023-02-28T09:23:24;5.00;5.00;2.75
65383;PMS5003;51986;52.788;41.368;2023-02-28T09:25:52;3.00;2.75;0.00
65383;PMS5003;51986;52.788;41.368;2023-02-28T09:28:21;2.00;1.00;0.00
65383;PMS5003;51986;52.788;41.368;2023-02-28T09:30:50;1.00;1.00;0.00
65383;PMS5003;51986;52.788;41.368;2023-02-28T09:33:19;1.00;1.00;0.00
65383;PMS5003;51986;52.788;41.368;2023-02-28T09:35:48;0.00;0.00;0.00
65383;PMS5003;51986;52.788;41.368;2023-02-28T09:38:16;0.00;0.00;0.00
65383;PMS5003;51986;52.788;41.368;2023-02-28T09:40:51;1.00;0.00;0.00
65383;PMS5003;51986;52.788;41.368;2023-02-28T09:43:22;1.75;1.00;0.00
65383;PMS5003;51986;52.788;41.368;2023-02-28T09:46:16;1.00;0.00;0.00
65383;PMS5003;51986;52.788;41.368;2023-02-28T09:48:53;1.25;1.00;0.00
65383;PMS5003;51986;52.788;41.368;2023-02-28T09:54:09;3.25;3.00;0.00
65383;PMS5003;51986;52.788;41.368;2023-02-28T09:56:52;3.00;1.25;0.00
65383;PMS5003;51986;52.788;41.368;2023-02-28T10:07:19;3.25;3.00;1.00
65383;PMS5003;51986;52.788;41.368;2023-02-28T10:09:56;1.00;1.00;0.00
65383;PMS5003;51986;52.788;41.368;2023-02-28T10:12:29;1.00;1.00;0.00
65383;PMS5003;51986;52.788;41.368;2023-02-28T10:14:58;1.00;0.00;0.00
65383;PMS5003;51986;52.788;41.368;2023-02-28T10:17:27;1.00;0.75;0.00
65383;PMS5003;51986;52.788;41.368;2023-02-28T10:20:21;1.00;1.00;0.00
65383;PMS5003;51986;52.788;41.368;2023-02-28T10:25:48;2.00;2.00;0.00
65383;PMS5003;51986;52.788;41.368;2023-02-28T10:28:21;1.00;1.00;0.00
65383;PMS5003;51986;52.788;41.368;2023-02-28T10:30:49;3.00;2.00;0.00
65383;PMS5003;51986;52.788;41.368;2023-02-28T10:35:58;2.50;1.75;0.00
65383;PMS5003;51986;52.788;41.368;2023-02-28T10:38:32;1.00;1.00;0.00
65383;PMS5003;51986;52.788;41.368;2023-02-28T10:43:33;2.00;1.50;0.00
65383;PMS5003;51986;52.788;41.368;2023-02-28T10:46:09;3.75;3.50;0.00
65383;PMS5003;51986;52.788;41.368;2023-02-28T10:48:43;2.75;2.75;0.00
65383;PMS5003;51986;52.788;41.368;2023-02-28T10:51:23;1.00;1.00;0.00
65383;PMS5003;51986;52.788;41.368;2023-02-28T10:53:51;3.00;3.00;1.00
65383;PMS5003;51986;52.788;41.368;2023-02-28T10:56:28;3.00;1.00;0.00
65383;PMS5003;51986;52.788;41.368;2023-02-28T10:59:31;3.00;3.00;0.00
65383;PMS5003;51986;52.788;41.368;2023-02-28T11:01:58;2.75;2.00;0.00
65383;PMS5003;51986;52.788;41.368;2023-02-28T11:06:59;1.00;1.00;0.00
65383;PMS5003;51986;52.788;41.368;2023-02-28T11:09:50;5.75;5.75;2.25
65383;PMS5003;51986;52.788;41.368;2023-02-28T11:15:02;3.00;2.50;1.00
65383;PMS5003;51986;52.788;41.368;2023-02-28T11:17:32;2.00;2.00;0.00
65383;PMS5003;51986;52.788;41.368;2023-02-28T11:20:04;3.50;3.00;1.00
65383;PMS5003;51986;52.788;41.368;2023-02-28T11:22:35;3.00;3.00;1.00
65383;PMS5003;51986;52.788;41.368;2023-02-28T11:25:25;7.75;6.75;4.50
65383;PMS5003;51986;52.788;41.368;2023-02-28T11:28:05;10.00;8.00;4.00
65383;PMS5003;51986;52.788;41.368;2023-02-28T11:33:51;9.00;5.75;3.00
65383;PMS5003;51986;52.788;41.368;2023-02-28T11:36:24;9.00;7.00;5.00
65383;PMS5003;51986;52.788;41.368;2023-02-28T11:38:53;6.50;5.00;3.00
65383;PMS5003;51986;52.788;41.368;2023-02-28T11:48:01;5.00;5.00;1.00
65383;PMS5003;51986;52.788;41.368;2023-02-28T11:52:56;5.00;4.00;2.00
65383;PMS5003;51986;52.788;41.368;2023-02-28T12:07:10;5.75;5.75;3.00
65383;PMS5003;51986;52.788;41.368;2023-02-28T12:20:49;3.00;3.00;0.50
65383;PMS5003;51986;52.788;41.368;2023-02-28T12:26:32;3.00;3.00;1.00
65383;PMS5003;51986;52.788;41.368;2023-02-28T12:31:55;2.00;2.00;0.00
65383;PMS5003;51986;52.788;41.368;2023-02-28T12:34:35;3.00;3.00;1.00
65383;PMS5003;51986;52.788;41.368;2023-02-28T12:37:10;3.75;1.25;1.00
65383;PMS5003;51986;52.788;41.368;2023-02-28T12:39:46;1.75;1.50;0.00
65383;PMS5003;51986;52.788;41.368;2023-02-28T12:42:36;6.00;4.75;1.50
65383;PMS5003;51986;52.788;41.368;2023-02-28T12:45:22;3.00;3.00;1.25
65383;PMS5003;51986;52.788;41.368;2023-02-28T12:47:59;4.25;4.00;2.00
65383;PMS5003;51986;52.788;41.368;2023-02-28T12:50:30;3.00;2.25;0.75
65383;PMS5003;51986;52.788;41.368;2023-02-28T12:53:01;3.75;3.50;1.75
65383;PMS5003;51986;52.788;41.368;2023-02-28T13:09:12;1.50;1.00;0.00
65383;PMS5003;51986;52.788;41.368;2023-02-28T13:19:37;2.00;1.00;0.00
65383;PMS5003;51986;52.788;41.368;2023-02-28T13:27:52;3.00;2.00;0.75
65383;PMS5003;51986;52.788;41.368;2023-02-28T13:33:26;3.00;3.00;1.00
65383;PMS5003;51986;52.788;41.368;2023-02-28T13:38:59;3.00;1.75;0.00
65383;PMS5003;51986;52.788;41.368;2023-02-28T13:41:47;2.50;2.50;0.00
65383;PMS5003;51986;52.788;41.368;2023-02-28T13:44:18;3.00;2.00;0.00
65383;PMS5003;51986;52.788;41.368;2023-02-28T13:49:19;1.00;1.00;0.00
65383;PMS5003;51986;52.788;41.368;2023-02-28T13:54:32;1.00;1.00;0.00
65383;PMS5003;51986;52.788;41.368;2023-02-28T13:57:28;1.00;1.00;0.00
65383;PMS5003;51986;52.788;41.368;2023-02-28T14:06:23;1.00;1.00;0.00
65383;PMS5003;51986;52.788;41.368;2023-02-28T14:11:32;1.00;1.00;0.00
65383;PMS5003;51986;52.788;41.368;2023-02-28T14:14:02;1.00;1.00;0.00
65383;PMS5003;51986;52.788;41.368;2023-02-28T14:16:46;1.00;0.00;0.00
65383;PMS5003;51986;52.788;41.368;2023-02-28T14:19:19;2.00;1.00;0.00
65383;PMS5003;51986;52.788;41.368;2023-02-28T14:22:00;2.00;0.00;0.00
65383;PMS5003;51986;52.788;41.368;2023-02-28T14:27:36;1.00;1.00;0.00
65383;PMS5003;51986;52.788;41.368;2023-02-28T14:30:43;0.00;0.00;0.00
65383;PMS5003;51986;52.788;41.368;2023-02-28T14:36:07;1.50;1.00;0.00
65383;PMS5003;51986;52.788;41.368;2023-02-28T14:38:49;1.00;1.00;0.00
65383;PMS5003;51986;52.788;41.368;2023-02-28T14:41:38;1.75;1.00;0.00
65383;PMS5003;51986;52.788;41.368;2023-02-28T14:44:15;3.00;3.00;0.00
65383;PMS5003;51986;52.788;41.368;2023-02-28T14:46:46;1.00;1.00;0.00
65383;PMS5003;51986;52.788;41.368;2023-02-28T14:54:51;1.25;1.00;0.00
65383;PMS5003;51986;52.788;41.368;2023-02-28T14:57:42;1.00;0.00;0.00
65383;PMS5003;51986;52.788;41.368;2023-02-28T15:00:21;1.00;1.00;0.00
65383;PMS5003;51986;52.788;41.368;2023-02-28T15:02:57;2.00;1.00;0.00
65383;PMS5003;51986;52.788;41.368;2023-02-28T15:05:30;2.00;2.00;0.00
65383;PMS5003;51986;52.788;41.368;2023-02-28T15:08:16;4.00;3.00;0.00
65383;PMS5003;51986;52.788;41.368;2023-02-28T15:10:45;4.50;4.00;1.00
65383;PMS5003;51986;52.788;41.368;2023-02-28T15:13:44;3.00;3.00;1.00
65383;PMS5003;51986;52.788;41.368;2023-02-28T15:16:18;3.00;3.00;1.00
65383;PMS5003;51986;52.788;41.368;2023-02-28T15:18:53;2.00;2.00;1.00
65383;PMS5003;51986;52.788;41.368;2023-02-28T15:21:24;5.25;5.00;3.00
65383;PMS5003;51986;52.788;41.368;2023-02-28T15:24:04;5.00;4.00;1.00
65383;PMS5003;51986;52.788;41.368;2023-02-28T15:26:54;3.50;3.25;1.25
65383;PMS5003;51986;52.788;41.368;2023-02-28T15:29:25;3.00;3.00;1.00
65383;PMS5003;51986;52.788;41.368;2023-02-28T15:32:04;3.00;2.75;0.00
65383;PMS5003;51986;52.788;41.368;2023-02-28T15:34:40;1.00;1.00;0.00
65383;PMS5003;51986;52.788;41.368;2023-02-28T15:39:55;3.00;3.00;0.00
65383;PMS5003;51986;52.788;41.368;2023-02-28T15:42:27;4.00;3.00;1.00
65383;PMS5003;51986;52.788;41.368;2023-02-28T15:44:55;1.00;1.00;0.00
65383;PMS5003;51986;52.788;41.368;2023-02-28T15:47:23;2.25;2.00;0.00
65383;PMS5003;51986;52.788;41.368;2023-02-28T15:49:53;3.00;2.25;1.00
65383;PMS5003;51986;52.788;41.368;2023-02-28T15:55:26;3.00;3.00;1.00
65383;PMS5003;51986;52.788;41.368;2023-02-28T15:57:56;1.50;1.00;0.00
65383;PMS5003;51986;52.788;41.368;2023-02-28T16:00:27;3.00;2.00;0.00
65383;PMS5003;51986;52.788;41.368;2023-02-28T16:02:56;3.00;3.00;0.00
65383;PMS5003;51986;52.788;41.368;2023-02-28T16:05:27;5.75;4.75;2.00
65383;PMS5003;51986;52.788;41.368;2023-02-28T16:07:57;3.50;3.00;1.25
65383;PMS5003;51986;52.788;41.368;2023-02-28T16:10:27;3.00;3.00;1.25
65383;PMS5003;51986;52.788;41.368;2023-02-28T16:12:56;2.00;1.00;0.00
65383;PMS5003;51986;52.788;41.368;2023-02-28T16:15:28;1.00;1.00;0.00
65383;PMS5003;51986;52.788;41.368;2023-02-28T16:17:58;2.00;1.50;0.00
65383;PMS5003;51986;52.788;41.368;2023-02-28T16:20:26;4.25;3.00;0.00
65383;PMS5003;51986;52.788;41.368;2023-02-28T16:22:57;3.75;2.75;0.00
65383;PMS5003;51986;52.788;41.368;2023-02-28T16:25:26;6.00;4.00;1.25
65383;PMS5003;51986;52.788;41.368;2023-02-28T16:28:11;2.00;1.00;1.00
65383;PMS5003;51986;52.788;41.368;2023-02-28T16:31:00;1.00;1.00;0.00
65383;PMS5003;51986;52.788;41.368;2023-02-28T16:33:30;1.00;1.00;0.00
65383;PMS5003;51986;52.788;41.368;2023-02-28T16:35:58;1.75;1.25;0.00
65383;PMS5003;51986;52.788;41.368;2023-02-28T16:38:27;3.00;2.75;0.00
65383;PMS5003;51986;52.788;41.368;2023-02-28T16:40:55;3.00;1.00;1.00
65383;PMS5003;51986;52.788;41.368;2023-02-28T16:43:25;2.00;1.00;0.00
65383;PMS5003;51986;52.788;41.368;2023-02-28T16:45:56;1.00;1.00;0.00
65383;PMS5003;51986;52.788;41.368;2023-02-28T16:48:26;1.75;1.00;0.00
65383;PMS5003;51986;52.788;41.368;2023-02-28T16:50:53;1.00;1.00;0.00
65383;PMS5003;51986;52.788;41.368;2023-02-28T16:53:21;2.00;2.00;0.00
65383;PMS5003;51986;52.788;41.368;2023-02-28T16:55:47;1.75;1.75;0.00
65383;PMS5003;51986;52.788;41.368;2023-02-28T16:58:15;1.00;1.00;0.00
65383;PMS5003;51986;52.788;41.368;2023-02-28T17:00:43;3.00;2.00;0.75
65383;PMS5003;51986;52.788;41.368;2023-02-28T17:03:18;4.00;3.00;0.25
65383;PMS5003;51986;52.788;41.368;2023-02-28T17:05:59;1.75;1.00;0.00
65383;PMS5003;51986;52.788;41.368;2023-02-28T17:08:27;3.00;1.00;0.00
65383;PMS5003;51986;52.788;41.368;2023-02-28T17:10:55;1.00;1.00;0.00
65383;PMS5003;51986;52.788;41.368;2023-02-28T17:13:22;2.50;2.25;0.00
65383;PMS5003;51986;52.788;41.368;2023-02-28T17:15:49;3.00;2.50;1.00
65383;PMS5003;51986;52.788;41.368;2023-02-28T17:18:17;3.00;2.50;1.00